Time;durP1;ratioP1;P1;durP2;ratioP2;P2;SDS_P1;SDS_P2;PMS_P1;PMS_P2;Temp;Humidity;BMP_temperature;BMP_pressure;BME280_temperature;BME280_humidity;BME280_pressure;Samples;Min_cycle;Max_cycle;Signal;HPM_P1;HPM_P2
2022/06/10 00:00:05;;;;;;;;;6.00;6.00;;;;;19.14;54.73;101521.09;5076170;27;45480;-59
2022/06/10 00:02:31;;;;;;;;;4.00;4.00;;;;;19.14;54.60;101518.41;5075896;28;45514;-61
2022/06/10 00:04:56;;;;;;;;;6.67;5.67;;;;;19.12;55.05;101512.28;5075661;27;45456;-64
2022/06/10 00:07:23;;;;;;;;;5.00;4.00;;;;;19.08;54.77;101510.81;5076497;27;45295;-59
2022/06/10 00:09:48;;;;;;;;;7.67;5.00;;;;;19.05;54.94;101511.06;5076054;27;45414;-61
2022/06/10 00:12:13;;;;;;;;;2.33;2.33;;;;;19.06;54.91;101515.47;5075480;27;45562;-64
2022/06/10 00:14:39;;;;;;;;;6.00;4.00;;;;;19.01;54.89;101510.44;5075386;27;45365;-62
2022/06/10 00:17:04;;;;;;;;;6.33;4.67;;;;;19.05;55.25;101508.34;5074285;28;45408;-62
2022/06/10 00:19:30;;;;;;;;;5.00;5.00;;;;;19.02;54.83;101509.47;5075744;27;45618;-58
2022/06/10 00:21:55;;;;;;;;;4.00;4.00;;;;;19.07;55.06;101517.19;5078740;27;45710;-61
2022/06/10 00:24:21;;;;;;;;;5.00;4.00;;;;;19.05;55.14;101508.34;5079532;27;45305;-63
2022/06/10 00:26:46;;;;;;;;;7.00;6.00;;;;;19.01;55.39;101501.47;5112102;27;45362;-61
2022/06/10 00:29:12;;;;;;;;;8.00;5.33;;;;;19.07;55.25;101515.34;5079089;27;45357;-60
2022/06/10 00:31:37;;;;;;;;;2.00;2.00;;;;;19.04;55.41;101517.44;5077877;28;47547;-63
2022/06/10 00:34:02;;;;;;;;;6.33;5.00;;;;;18.99;55.45;101498.88;5077656;28;45374;-64
2022/06/10 00:36:29;;;;;;;;;6.00;5.00;;;;;18.88;55.52;101479.13;5079358;27;45228;-61
2022/06/10 00:38:54;;;;;;;;;6.33;5.00;;;;;19.04;55.38;101506.63;5079506;27;45507;-64
2022/06/10 00:41:20;;;;;;;;;10.00;5.00;;;;;19.00;55.42;101499.75;5079286;27;46352;-63
2022/06/10 00:43:46;;;;;;;;;9.00;4.33;;;;;19.05;55.68;101508.34;5079095;27;45540;-64
2022/06/10 00:46:35;;;;;;;;;4.00;4.00;;;;;19.03;55.54;101505.78;5079143;27;45376;-62
2022/06/10 00:49:07;;;;;;;;;6.67;4.00;;;;;19.03;55.49;101507.63;5079178;27;45442;-63
2022/06/10 00:51:45;;;;;;;;;4.00;4.00;;;;;19.02;55.83;101504.06;5078948;27;46089;-60
2022/06/10 00:54:17;;;;;;;;;3.67;3.67;;;;;18.99;55.59;101498.88;5078402;27;45416;-62
2022/06/10 00:56:48;;;;;;;;;7.33;4.67;;;;;18.99;55.91;101492.63;5078202;27;45381;-61
2022/06/10 00:59:23;;;;;;;;;5.00;4.33;;;;;18.98;55.67;101501.72;5057525;28;45200;-62
2022/06/10 01:01:56;;;;;;;;;5.33;5.00;;;;;18.96;55.94;101495.56;5058489;28;45247;-64
2022/06/10 01:04:22;;;;;;;;;6.00;3.67;;;;;18.95;56.47;101493.88;5057472;28;45502;-62
2022/06/10 01:06:47;;;;;;;;;5.00;4.00;;;;;18.93;55.98;101493.13;5058623;27;45342;-61
2022/06/10 01:09:17;;;;;;;;;10.00;5.00;;;;;18.92;56.02;101494.97;5078611;27;45681;-60
2022/06/10 01:12:12;;;;;;;;;3.00;3.00;;;;;18.92;55.92;101488.72;5078292;27;45319;-57
2022/06/10 01:14:58;;;;;;;;;3.33;2.00;;;;;18.90;55.76;101494.22;5077403;28;45374;-61
2022/06/10 01:17:51;;;;;;;;;5.00;5.00;;;;;18.89;55.92;101486.25;5078879;27;45483;-62
2022/06/10 01:20:26;;;;;;;;;4.00;4.00;;;;;18.90;55.83;101494.22;5078834;27;45982;-59
2022/06/10 01:23:06;;;;;;;;;5.00;3.33;;;;;18.91;55.99;101500.47;5071154;27;45443;-60
2022/06/10 01:25:43;;;;;;;;;3.33;3.00;;;;;18.88;56.10;101495.28;5058171;28;45361;-59
2022/06/10 01:28:16;;;;;;;;;6.33;3.33;;;;;18.86;55.76;101488.19;5090676;27;45406;-65
2022/06/10 01:31:07;;;;;;;;;4.33;2.33;;;;;18.86;55.84;101493.59;5057799;28;45326;-64
2022/06/10 01:33:43;;;;;;;;;8.00;5.33;;;;;18.87;55.82;101491.75;5056870;28;46389;-62
2022/06/10 01:36:40;;;;;;;;;3.00;3.00;;;;;18.85;56.03;101488.31;5073232;28;45443;-65
2022/06/10 01:39:41;;;;;;;;;5.67;4.00;;;;;18.82;55.95;101486.72;5058045;28;45499;-65
2022/06/10 01:42:27;;;;;;;;;7.00;5.67;;;;;18.83;56.11;101491.13;5098788;27;45380;-59
2022/06/10 01:45:11;;;;;;;;;5.67;3.00;;;;;18.85;56.07;101485.63;5078230;28;46541;-57
2022/06/10 01:47:44;;;;;;;;;5.00;3.00;;;;;18.84;55.87;101495.53;5077625;27;45257;-58
2022/06/10 01:50:16;;;;;;;;;6.33;5.00;;;;;18.84;56.38;101502.75;5078069;27;45310;-60
2022/06/10 01:52:51;;;;;;;;;2.00;2.00;;;;;18.85;55.93;101502.66;5078164;27;45365;-59
2022/06/10 01:55:27;;;;;;;;;4.00;3.33;;;;;18.82;56.38;101492.09;5077484;27;45432;-65
2022/06/10 01:58:20;;;;;;;;;4.67;4.67;;;;;18.83;56.01;101499.22;5077679;27;45332;-62
2022/06/10 02:00:51;;;;;;;;;3.00;3.00;;;;;18.82;56.31;101492.09;5075297;28;45377;-65
2022/06/10 02:03:28;;;;;;;;;5.33;5.00;;;;;18.81;56.10;101495.78;5078114;27;45385;-63
2022/06/10 02:06:16;;;;;;;;;3.33;3.00;;;;;18.85;55.89;101493.69;5077547;27;46841;-66
2022/06/10 02:09:08;;;;;;;;;5.00;4.00;;;;;18.85;56.09;101499.09;5077344;27;45285;-59
2022/06/10 02:11:37;;;;;;;;;4.00;4.00;;;;;18.82;56.13;101492.09;5077771;27;45351;-66
2022/06/10 02:14:11;;;;;;;;;4.33;3.00;;;;;18.83;55.65;101507.28;5093130;27;45580;-62
2022/06/10 02:16:41;;;;;;;;;7.67;4.33;;;;;18.83;56.32;101504.59;5076625;28;45544;-61
2022/06/10 02:19:27;;;;;;;;;3.33;3.33;;;;;18.82;56.05;101502.88;5076262;28;45354;-61
2022/06/10 02:22:07;;;;;;;;;3.33;3.33;;;;;18.80;56.13;101504.84;5077326;27;45632;-59
2022/06/10 02:25:05;;;;;;;;;5.00;5.00;;;;;18.78;55.72;101496.03;5077550;27;45448;-60
2022/06/10 02:27:37;;;;;;;;;6.00;3.67;;;;;18.71;55.84;101492.06;5076194;28;45655;-59
2022/06/10 02:30:10;;;;;;;;;6.00;4.00;;;;;18.70;56.04;101493.03;5077562;27;45361;-62
2022/06/10 02:32:39;;;;;;;;;4.00;3.00;;;;;18.69;56.00;101495.84;5076672;28;45392;-62
2022/06/10 02:35:07;;;;;;;;;5.67;3.00;;;;;18.62;56.03;101490.06;5077889;27;45504;-65
2022/06/10 02:37:54;;;;;;;;;6.67;2.67;;;;;18.56;56.19;101487.81;5076090;28;46800;-61
2022/06/10 02:40:29;;;;;;;;;3.67;3.67;;;;;18.57;56.51;101509.22;5077328;27;45440;-62
2022/06/10 02:43:13;;;;;;;;;4.00;4.00;;;;;18.55;56.18;101496.88;5075947;27;45571;-67
2022/06/10 02:45:52;;;;;;;;;8.00;5.00;;;;;18.50;56.55;101496.34;5076739;27;45458;-62
2022/06/10 02:48:39;;;;;;;;;4.00;4.00;;;;;18.50;56.43;101508.00;5076718;27;46066;-65
2022/06/10 02:51:05;;;;;;;;;3.33;3.33;;;;;18.43;57.04;101511.25;5076634;27;45275;-59
2022/06/10 02:53:31;;;;;;;;;4.00;4.00;;;;;18.44;56.86;101512.97;5076748;27;45340;-62
2022/06/10 02:55:56;;;;;;;;;5.00;5.00;;;;;18.42;57.07;101512.22;5093315;27;45293;-58
2022/06/10 03:01:30;;;;;;;;;5.67;4.00;;;;;18.35;56.77;101522.56;5076845;28;45464;-62
2022/06/10 03:04:19;;;;;;;;;4.00;4.00;;;;;18.31;57.19;101520.22;5077023;27;45322;-56
2022/06/10 03:06:56;;;;;;;;;3.00;3.00;;;;;18.27;57.00;101516.91;5075652;28;45363;-57
2022/06/10 03:09:48;;;;;;;;;7.00;4.00;;;;;18.25;57.08;101524.25;5075267;28;47061;-64
2022/06/10 03:12:35;;;;;;;;;7.00;3.00;;;;;18.21;57.07;101520.91;5054560;27;45549;-63
2022/06/10 03:15:22;;;;;;;;;5.00;3.33;;;;;18.17;57.67;101523.94;5056852;28;45372;-63
2022/06/10 03:18:12;;;;;;;;;4.67;4.67;;;;;18.14;57.27;101525.03;5068471;28;45278;-64
2022/06/10 03:21:05;;;;;;;;;2.33;2.33;;;;;18.13;57.37;101520.63;5076410;27;45453;-63
2022/06/10 03:23:52;;;;;;;;;3.67;3.00;;;;;18.12;57.44;101516.22;5071523;28;45491;-57
2022/06/10 03:26:58;;;;;;;;;5.00;5.00;;;;;18.08;57.41;101520.06;5054236;28;46038;-61
2022/06/10 03:29:56;;;;;;;;;4.00;4.00;;;;;18.05;57.71;101528.38;5056503;27;45373;-62
2022/06/10 03:32:28;;;;;;;;;4.00;4.00;;;;;18.02;57.56;101528.59;5055347;28;45250;-60
2022/06/10 03:35:02;;;;;;;;;4.33;2.00;;;;;17.98;57.63;101537.88;5055879;28;45248;-62
2022/06/10 03:37:28;;;;;;;;;3.00;3.00;;;;;17.94;57.91;101526.47;5055907;28;45437;-64
2022/06/10 03:39:56;;;;;;;;;4.00;4.00;;;;;17.94;58.26;101530.97;5056475;28;45559;-60
2022/06/10 03:42:25;;;;;;;;;6.33;4.00;;;;;17.86;58.53;101534.25;5055991;28;45444;-59
2022/06/10 03:44:54;;;;;;;;;3.67;3.67;;;;;17.85;58.58;101534.34;5055963;28;45271;-67
2022/06/10 03:47:28;;;;;;;;;6.33;4.33;;;;;17.82;58.73;101532.72;5056125;27;45411;-62
2022/06/10 03:50:10;;;;;;;;;5.67;3.00;;;;;17.82;58.46;101532.72;5055877;28;45664;-60
2022/06/10 03:52:39;;;;;;;;;4.33;2.00;;;;;17.84;59.02;101529.91;5072555;28;45654;-63
2022/06/10 03:55:07;;;;;;;;;12.67;4.67;;;;;17.77;59.18;101529.50;5074733;28;45595;-58
2022/06/10 03:57:33;;;;;;;;;6.33;5.33;;;;;17.77;59.11;101529.50;5080339;27;45305;-59
2022/06/10 03:59:58;;;;;;;;;4.33;3.67;;;;;17.70;59.71;101528.22;5079805;27;45259;-59
2022/06/10 04:02:23;;;;;;;;;5.00;5.00;;;;;17.67;59.69;101525.72;5077445;27;45626;-62
2022/06/10 04:04:52;;;;;;;;;7.00;4.00;;;;;17.68;59.87;101543.56;5077990;27;45392;-64
2022/06/10 04:07:19;;;;;;;;;4.00;4.00;;;;;17.68;59.94;101541.78;5079654;27;45333;-60
2022/06/10 04:09:46;;;;;;;;;4.00;4.00;;;;;17.69;59.97;101543.50;5078568;28;45602;-59
2022/06/10 04:12:11;;;;;;;;;10.33;5.33;;;;;17.69;60.00;101537.25;5079390;27;46375;-60
2022/06/10 04:14:37;;;;;;;;;3.33;3.33;;;;;17.69;60.00;101542.63;5079609;27;45400;-62
2022/06/10 04:17:03;;;;;;;;;6.00;4.00;;;;;17.69;59.98;101550.69;5079871;27;45425;-59
2022/06/10 04:19:29;;;;;;;;;3.67;3.33;;;;;17.69;59.97;101548.88;5079713;27;45327;-66
2022/06/10 04:21:55;;;;;;;;;5.00;5.00;;;;;17.70;60.51;101555.13;5078194;28;48137;-62
2022/06/10 04:24:20;;;;;;;;;3.00;3.00;;;;;17.68;60.30;101557.03;5079499;27;45530;-63
2022/06/10 04:26:46;;;;;;;;;6.00;5.00;;;;;17.71;60.79;101550.59;5079762;27;45273;-65
2022/06/10 04:29:13;;;;;;;;;3.00;3.00;;;;;17.73;60.35;101554.06;5079902;27;45337;-61
2022/06/10 04:31:39;;;;;;;;;6.00;4.00;;;;;17.72;60.56;101550.50;5077923;27;46590;-61
2022/06/10 04:34:04;;;;;;;;;2.00;2.00;;;;;17.65;60.68;101541.97;5079359;27;45242;-59
2022/06/10 04:36:30;;;;;;;;;5.00;3.67;;;;;17.74;60.96;101555.78;5079498;27;45164;-62
2022/06/10 04:38:56;;;;;;;;;5.00;3.67;;;;;17.74;60.66;101561.16;5079378;27;45220;-65
2022/06/10 04:41:21;;;;;;;;;3.00;3.00;;;;;17.69;61.26;101564.16;5078835;28;45270;-66
2022/06/10 04:43:47;;;;;;;;;5.00;5.00;;;;;17.65;61.09;101568.88;5079344;27;45733;-59
2022/06/10 04:46:24;;;;;;;;;4.00;3.00;;;;;17.62;61.15;101562.84;5079194;27;45822;-58
2022/06/10 04:48:51;;;;;;;;;3.00;3.00;;;;;17.64;61.38;101567.16;5079535;27;45439;-60
2022/06/10 04:51:16;;;;;;;;;5.00;5.00;;;;;17.60;61.57;101565.66;5078663;27;45447;-58
2022/06/10 04:53:42;;;;;;;;;4.00;4.00;;;;;17.63;61.57;101564.56;5078826;27;45346;-60
2022/06/10 04:56:08;;;;;;;;;4.00;2.33;;;;;17.66;61.25;101564.34;5079331;27;45392;-57
2022/06/10 04:58:34;;;;;;;;;3.00;3.00;;;;;17.65;61.30;101563.50;5079637;27;45537;-60
2022/06/10 05:00:59;;;;;;;;;4.00;4.00;;;;;17.64;61.67;101555.53;5077878;28;46560;-62
2022/06/10 05:03:25;;;;;;;;;6.00;4.00;;;;;17.64;61.54;101561.78;5079069;27;45328;-58
2022/06/10 05:05:51;;;;;;;;;2.33;2.33;;;;;17.67;61.48;101564.22;5078288;28;45339;-59
2022/06/10 05:08:18;;;;;;;;;5.33;4.00;;;;;17.71;61.76;101567.63;5077599;28;45254;-58
2022/06/10 05:10:45;;;;;;;;;5.00;3.00;;;;;17.71;62.05;101564.94;5078473;27;46188;-58
2022/06/10 05:13:10;;;;;;;;;3.00;3.00;;;;;17.65;61.85;101558.09;5076606;27;45433;-61
2022/06/10 05:15:37;;;;;;;;;6.00;4.33;;;;;17.68;61.63;101562.41;5077762;27;45505;-68
2022/06/10 05:18:04;;;;;;;;;3.67;3.67;;;;;17.66;61.79;101564.34;5078830;27;45499;-62
2022/06/10 05:20:34;;;;;;;;;4.67;3.67;;;;;17.65;61.79;101559.94;5078324;27;45573;-63
2022/06/10 05:23:04;;;;;;;;;3.00;3.00;;;;;17.66;62.44;101561.66;5078595;28;45345;-60
2022/06/10 05:25:30;;;;;;;;;2.33;2.33;;;;;17.61;61.58;101553.06;5078285;27;45477;-57
2022/06/10 05:27:55;;;;;;;;;5.33;4.00;;;;;17.64;61.99;101564.47;5078134;27;45211;-57
2022/06/10 05:30:25;;;;;;;;;2.67;2.67;;;;;17.66;61.58;101565.19;5078135;27;45223;-58
2022/06/10 05:32:50;;;;;;;;;3.00;3.00;;;;;17.68;61.84;101567.78;5078072;27;45456;-57
2022/06/10 05:35:17;;;;;;;;;6.00;4.00;;;;;17.68;62.13;101567.78;5093922;27;45374;-62
2022/06/10 05:37:43;;;;;;;;;3.67;3.00;;;;;17.73;62.11;101576.44;5079035;28;45640;-61
2022/06/10 05:40:11;;;;;;;;;3.00;3.00;;;;;17.75;61.87;101569.13;5078368;28;46205;-60
2022/06/10 05:42:36;;;;;;;;;3.00;3.00;;;;;17.75;61.78;101563.75;5078300;27;45237;-61
2022/06/10 05:45:02;;;;;;;;;3.00;3.00;;;;;17.76;62.17;101570.84;5078314;27;45326;-61
2022/06/10 05:47:30;;;;;;;;;0.00;0.00;;;;;17.81;62.23;101567.81;5078151;27;45345;-62
2022/06/10 05:49:59;;;;;;;;;3.33;3.33;;;;;17.82;62.03;101573.09;5077770;27;46676;-61
2022/06/10 05:52:27;;;;;;;;;4.33;4.33;;;;;17.82;61.99;101583.84;5078012;27;45341;-61
2022/06/10 05:54:57;;;;;;;;;4.33;3.67;;;;;17.82;61.86;101583.00;5076302;27;45323;-59
2022/06/10 05:57:22;;;;;;;;;5.33;2.67;;;;;17.84;61.70;101581.94;5078225;27;45389;-66
2022/06/10 05:59:49;;;;;;;;;2.00;2.00;;;;;17.82;61.74;101585.69;5077613;27;46039;-63
2022/06/10 06:02:16;;;;;;;;;7.33;4.67;;;;;17.87;61.59;101594.31;5077690;27;45330;-64
2022/06/10 06:04:42;;;;;;;;;2.33;2.33;;;;;17.87;61.96;101594.31;5078476;27;45282;-65
2022/06/10 06:07:09;;;;;;;;;4.00;3.00;;;;;17.91;61.69;101603.88;5078631;27;45251;-60
2022/06/10 06:09:37;;;;;;;;;2.00;2.00;;;;;17.92;61.37;101608.28;5077199;27;46450;-61
2022/06/10 06:12:03;;;;;;;;;6.00;4.33;;;;;17.91;61.78;101596.66;5077766;27;45401;-63
2022/06/10 06:14:29;;;;;;;;;5.00;3.00;;;;;18.00;61.77;101619.38;5078147;27;45346;-65
2022/06/10 06:17:00;;;;;;;;;3.67;2.00;;;;;18.01;61.52;101604.94;5061794;27;45279;-61
2022/06/10 06:19:27;;;;;;;;;7.00;4.00;;;;;18.09;61.79;101607.94;5053216;28;45519;-60
2022/06/10 06:21:53;;;;;;;;;5.00;3.33;;;;;18.09;61.48;101599.00;5055604;28;45443;-58
2022/06/10 06:24:19;;;;;;;;;8.00;4.33;;;;;18.12;61.42;101607.75;5056976;28;45284;-60
2022/06/10 06:26:44;;;;;;;;;5.33;4.00;;;;;18.11;61.59;101603.31;5055974;28;45512;-61
2022/06/10 06:29:11;;;;;;;;;4.33;3.33;;;;;18.15;61.02;101612.91;5057220;28;46361;-60
2022/06/10 06:31:37;;;;;;;;;6.33;4.67;;;;;18.18;61.22;101604.59;5056964;28;45233;-58
2022/06/10 06:34:02;;;;;;;;;4.33;3.33;;;;;18.29;61.31;101609.22;5056528;28;45480;-60
2022/06/10 06:36:31;;;;;;;;;4.00;4.00;;;;;18.35;61.25;101615.97;5057201;28;45386;-59
2022/06/10 06:38:57;;;;;;;;;3.00;3.00;;;;;18.36;60.75;101612.31;5055222;28;47082;-56
2022/06/10 06:41:23;;;;;;;;;3.00;3.00;;;;;18.34;61.08;101615.09;5055240;28;45473;-61
2022/06/10 06:43:48;;;;;;;;;4.67;4.33;;;;;18.40;61.14;101616.50;5056699;28;45397;-62
2022/06/10 06:46:16;;;;;;;;;4.00;4.00;;;;;18.47;61.05;101615.09;5055801;28;45834;-65
2022/06/10 06:48:43;;;;;;;;;5.00;5.00;;;;;18.52;60.93;101608.41;5053295;28;46873;-62
2022/06/10 06:51:09;;;;;;;;;6.00;5.00;;;;;18.53;60.83;101609.25;5060125;28;45559;-62
2022/06/10 06:53:35;;;;;;;;;4.00;3.00;;;;;18.55;60.79;101604.63;5109760;27;45383;-61
2022/06/10 06:56:02;;;;;;;;;3.00;3.00;;;;;18.63;60.55;101604.94;5092353;27;45684;-63
2022/06/10 06:58:27;;;;;;;;;3.33;3.00;;;;;18.67;60.66;101601.06;5074545;27;45634;-59
2022/06/10 07:00:53;;;;;;;;;3.33;2.67;;;;;18.71;60.25;101607.94;5075354;27;45500;-60
2022/06/10 07:03:20;;;;;;;;;7.33;5.00;;;;;18.73;60.15;101608.66;5075316;28;45373;-61
2022/06/10 07:05:46;;;;;;;;;4.67;3.67;;;;;18.81;59.75;101613.50;5076665;27;45330;-66
2022/06/10 07:08:11;;;;;;;;;3.67;3.00;;;;;18.82;59.21;101616.06;5076630;28;45330;-62
2022/06/10 07:10:37;;;;;;;;;2.33;2.33;;;;;18.82;59.53;101602.59;5075920;27;45416;-61
2022/06/10 07:13:02;;;;;;;;;6.00;2.33;;;;;18.91;58.99;101605.59;5074742;28;45246;-63
2022/06/10 07:15:29;;;;;;;;;2.67;2.67;;;;;18.90;58.07;101606.56;5059522;28;45251;-62
2022/06/10 07:17:55;;;;;;;;;4.00;3.00;;;;;18.89;58.39;101608.41;5075932;27;45539;-60
2022/06/10 07:20:25;;;;;;;;;3.00;3.00;;;;;18.92;58.75;101610.88;5076031;27;45411;-62
2022/06/10 07:22:51;;;;;;;;;3.00;1.67;;;;;18.95;58.56;101604.38;5076437;28;45782;-61
2022/06/10 07:25:17;;;;;;;;;2.67;2.67;;;;;18.96;57.84;101595.31;5076418;27;45546;-62
2022/06/10 07:27:43;;;;;;;;;4.00;4.00;;;;;19.01;57.84;101612.00;5076269;27;45350;-64
2022/06/10 07:30:09;;;;;;;;;3.67;2.00;;;;;19.02;56.56;101605.66;5075172;27;45361;-67
2022/06/10 07:32:35;;;;;;;;;3.00;2.00;;;;;19.05;56.53;101618.91;5076122;28;45495;-62
2022/06/10 07:35:01;;;;;;;;;4.67;3.00;;;;;19.09;56.97;101614.97;5076358;27;45575;-62
2022/06/10 07:37:26;;;;;;;;;2.00;2.00;;;;;19.17;56.70;101620.66;5076143;27;45369;-63
2022/06/10 07:39:52;;;;;;;;;2.67;2.00;;;;;19.24;56.33;101618.34;5076261;27;45335;-62
2022/06/10 07:42:18;;;;;;;;;2.00;2.00;;;;;19.33;56.56;101621.22;5091828;27;45312;-62
2022/06/10 07:44:43;;;;;;;;;3.00;3.00;;;;;19.47;56.60;101624.69;5076450;27;45714;-63
2022/06/10 07:47:12;;;;;;;;;3.33;2.00;;;;;19.72;56.22;101627.25;5075991;27;45997;-65
2022/06/10 07:49:39;;;;;;;;;4.00;2.67;;;;;19.92;54.72;101618.44;5091296;27;45297;-65
2022/06/10 07:52:09;;;;;;;;;4.00;3.00;;;;;20.20;54.78;101619.81;5076015;27;45350;-60
2022/06/10 07:54:36;;;;;;;;;3.00;3.00;;;;;20.45;53.86;101618.72;5076051;27;45496;-60
2022/06/10 07:57:03;;;;;;;;;1.67;1.67;;;;;20.67;53.50;101619.63;5076274;27;45431;-60
2022/06/10 07:59:30;;;;;;;;;2.00;2.00;;;;;20.78;53.20;101616.91;5075942;27;45445;-64
2022/06/10 08:01:57;;;;;;;;;2.25;1.75;;;;;20.84;53.11;101611.88;5076080;27;45416;-65
2022/06/10 08:04:23;;;;;;;;;3.00;2.00;;;;;20.88;51.99;101618.72;5076323;27;45463;-67
2022/06/10 08:06:48;;;;;;;;;1.75;1.50;;;;;20.90;51.91;101616.75;5075813;27;45790;-62
2022/06/10 08:09:16;;;;;;;;;2.00;2.00;;;;;20.84;51.49;101614.56;5076288;28;45395;-69
2022/06/10 08:11:42;;;;;;;;;2.00;2.00;;;;;20.85;52.95;101615.44;5075866;27;45287;-64
2022/06/10 08:14:07;;;;;;;;;2.00;2.00;;;;;20.86;52.66;101614.44;5091494;27;45376;-65
2022/06/10 08:16:35;;;;;;;;;3.00;2.00;;;;;20.97;51.77;101610.84;5075699;28;46008;-66
2022/06/10 08:19:00;;;;;;;;;2.00;2.00;;;;;21.06;50.70;101600.09;5075590;27;45825;-64
2022/06/10 08:24:11;;;;;;;;;3.00;1.50;;;;;21.45;50.50;101609.41;5075936;28;45397;-66
2022/06/10 08:26:36;;;;;;;;;1.00;1.00;;;;;21.65;49.31;101613.13;5075814;27;45332;-67
2022/06/10 08:29:03;;;;;;;;;1.00;1.00;;;;;21.83;48.72;101601.66;5075603;27;45380;-66
2022/06/10 08:31:29;;;;;;;;;1.50;1.50;;;;;22.27;48.67;101597.78;5075940;27;45375;-64
2022/06/10 08:33:54;;;;;;;;;1.00;1.00;;;;;22.54;47.35;101589.88;5075913;27;45526;-65
2022/06/10 08:36:20;;;;;;;;;1.00;1.00;;;;;22.97;47.60;101588.66;5075231;28;47070;-65
2022/06/10 08:38:45;;;;;;;;;4.75;1.75;;;;;23.38;46.59;101582.06;5075549;27;45299;-66
2022/06/10 08:41:40;;;;;;;;;3.00;3.00;;;;;23.78;44.92;101583.72;5076075;28;45244;-68
2022/06/10 08:44:11;;;;;;;;;1.75;1.00;;;;;23.96;46.03;101579.25;5077758;27;45694;-66
2022/06/10 08:47:01;;;;;;;;;2.80;0.60;;;;;24.41;44.68;101583.91;5078977;27;45511;-65
2022/06/10 08:49:48;;;;;;;;;1.00;1.00;;;;;24.77;43.61;101575.81;5078762;27;45318;-62
2022/06/10 08:52:21;;;;;;;;;2.00;2.00;;;;;25.22;42.96;101567.59;5079110;27;45508;-66
2022/06/10 08:54:53;;;;;;;;;2.00;1.00;;;;;25.75;42.98;101592.00;5079211;27;45415;-63
2022/06/10 08:57:32;;;;;;;;;2.00;1.00;;;;;26.17;41.57;101578.47;5079056;27;45377;-64
2022/06/10 09:00:00;;;;;;;;;1.60;1.00;;;;;26.48;39.61;101579.78;5078692;27;45395;-64
2022/06/10 09:02:57;;;;;;;;;0.40;0.40;;;;;26.27;40.20;101578.31;5076896;27;45463;-64
2022/06/10 09:05:43;;;;;;;;;1.00;1.00;;;;;26.07;39.76;101595.97;5073664;27;45540;-64
2022/06/10 09:08:22;;;;;;;;;1.00;1.00;;;;;25.87;39.57;101585.28;5111473;27;46883;-65
2022/06/10 09:11:05;;;;;;;;;1.60;1.60;;;;;25.77;40.96;101579.06;5078295;27;45319;-62
2022/06/10 09:13:36;;;;;;;;;1.20;1.00;;;;;25.90;40.36;101575.06;5077814;27;45294;-62
2022/06/10 09:16:49;;;;;;;;;0.60;0.60;;;;;25.94;39.49;101584.66;5094333;27;45445;-65
2022/06/10 09:19:45;;;;;;;;;0.00;0.00;;;;;26.05;38.27;101584.38;5067906;27;45479;-66
2022/06/10 09:22:20;;;;;;;;;0.60;0.00;;;;;25.88;37.78;101592.44;5058301;27;45392;-65
2022/06/10 09:25:10;;;;;;;;;3.00;0.20;;;;;25.45;39.58;101587.88;5078198;27;45444;-65
2022/06/10 09:27:44;;;;;;;;;0.00;0.00;;;;;25.58;39.86;101579.28;5078191;27;45606;-65
2022/06/10 09:30:13;;;;;;;;;0.00;0.00;;;;;25.73;40.08;101580.41;5078026;27;45980;-64
2022/06/10 09:32:50;;;;;;;;;0.00;0.00;;;;;26.11;38.78;101570.06;5078159;27;45221;-65
2022/06/10 09:35:32;;;;;;;;;1.20;0.80;;;;;26.56;39.04;101563.44;5078267;27;45419;-63
2022/06/10 09:38:35;;;;;;;;;0.20;0.20;;;;;27.12;37.59;101575.50;5077063;27;45249;-63
2022/06/10 09:41:35;;;;;;;;;1.00;1.00;;;;;27.61;37.14;101570.88;5077780;27;45384;-63
2022/06/10 09:44:14;;;;;;;;;0.00;0.00;;;;;28.08;36.53;101572.81;5077884;27;45354;-65
2022/06/10 09:46:45;;;;;;;;;0.00;0.00;;;;;28.18;37.13;101570.72;5078200;28;45350;-66
2022/06/10 09:49:23;;;;;;;;;1.20;1.00;;;;;27.84;37.50;101581.94;5078003;28;45389;-65
2022/06/10 09:52:16;;;;;;;;;1.00;1.00;;;;;27.60;38.32;101586.38;5077290;27;46144;-63
2022/06/10 09:55:26;;;;;;;;;0.00;0.00;;;;;27.71;36.36;101570.69;5077148;27;45474;-64
2022/06/10 09:58:14;;;;;;;;;1.00;1.00;;;;;28.12;36.58;101575.00;5078336;27;45214;-63
2022/06/10 10:01:01;;;;;;;;;0.00;0.00;;;;;28.34;36.43;101578.03;5078044;27;45326;-67
2022/06/10 10:03:59;;;;;;;;;2.20;1.00;;;;;28.17;35.65;101588.16;5077562;28;45560;-63
2022/06/10 10:06:39;;;;;;;;;0.60;0.60;;;;;28.16;34.89;101590.06;5077425;28;45361;-69
2022/06/10 10:09:26;;;;;;;;;0.20;0.20;;;;;28.02;36.59;101579.84;5076188;28;45313;-64
2022/06/10 10:12:17;;;;;;;;;2.60;1.20;;;;;28.12;36.79;101588.69;5078209;27;45480;-62
2022/06/10 10:15:01;;;;;;;;;1.00;1.00;;;;;28.29;35.57;101591.41;5077074;28;45361;-63
2022/06/10 10:17:42;;;;;;;;;2.00;2.00;;;;;28.09;35.44;101593.66;5076681;27;45474;-63
2022/06/10 10:20:19;;;;;;;;;0.00;0.00;;;;;27.89;37.25;101595.94;5075967;28;45457;-63
2022/06/10 10:23:10;;;;;;;;;2.80;1.00;;;;;27.68;36.48;101590.19;5076049;28;45321;-62
2022/06/10 10:25:40;;;;;;;;;1.40;1.20;;;;;27.45;37.57;101587.25;5077196;28;45506;-65
2022/06/10 10:28:26;;;;;;;;;1.80;1.80;;;;;27.52;36.72;101588.28;5077419;27;45223;-63
2022/06/10 10:31:23;;;;;;;;;2.60;1.00;;;;;27.38;37.83;101578.91;5070119;27;45377;-66
2022/06/10 10:33:49;;;;;;;;;1.00;1.00;;;;;27.22;37.71;101587.13;5055040;28;45406;-62
2022/06/10 10:36:31;;;;;;;;;2.20;1.00;;;;;26.99;38.54;101582.28;5055551;28;45381;-62
2022/06/10 10:38:57;;;;;;;;;0.40;0.40;;;;;26.59;38.70;101595.88;5056792;28;45765;-65
2022/06/10 10:41:28;;;;;;;;;4.20;2.40;;;;;26.28;39.50;101580.03;5056965;28;45353;-66
2022/06/10 10:44:29;;;;;;;;;1.00;1.00;;;;;26.05;39.62;101589.81;5057031;28;45356;-65
2022/06/10 10:47:08;;;;;;;;;2.00;2.00;;;;;25.68;40.96;101592.81;5063649;28;46142;-63
2022/06/10 10:49:38;;;;;;;;;5.00;1.40;;;;;25.54;41.07;101589.66;5088628;27;45287;-66
2022/06/10 10:52:19;;;;;;;;;4.00;1.00;;;;;25.40;41.48;101595.66;5069587;28;45377;-65
2022/06/10 10:54:48;;;;;;;;;1.60;1.60;;;;;25.21;41.78;101583.06;5076938;27;45392;-66
2022/06/10 10:57:29;;;;;;;;;3.60;2.00;;;;;25.18;41.83;101585.25;5076643;27;45776;-63
2022/06/10 11:00:09;;;;;;;;;2.40;1.40;;;;;25.09;42.25;101591.63;5076943;27;45344;-63
2022/06/10 11:02:40;;;;;;;;;4.20;2.00;;;;;25.06;42.39;101579.19;5075833;27;45712;-63
2022/06/10 11:05:15;;;;;;;;;2.00;2.00;;;;;25.06;42.56;101587.38;5076768;27;45249;-64
2022/06/10 11:07:43;;;;;;;;;1.60;1.60;;;;;25.02;42.70;101588.69;5075020;27;45768;-63
2022/06/10 11:10:21;;;;;;;;;1.40;1.40;;;;;24.97;42.68;101585.53;5076180;27;45649;-59
2022/06/10 11:12:47;;;;;;;;;3.60;2.40;;;;;24.80;42.76;101583.66;5073647;28;45737;-69
2022/06/10 11:15:27;;;;;;;;;5.00;3.00;;;;;24.68;43.22;101586.59;5076942;27;45321;-68
2022/06/10 11:17:54;;;;;;;;;4.80;3.40;;;;;24.73;43.10;101582.56;5076040;27;46383;-65
2022/06/10 11:20:30;;;;;;;;;3.80;1.60;;;;;24.73;42.95;101588.84;5075536;27;45277;-68
2022/06/10 11:23:24;;;;;;;;;2.00;1.60;;;;;24.57;42.92;101585.97;5076826;27;45345;-66
2022/06/10 11:26:16;;;;;;;;;2.80;2.80;;;;;24.48;43.20;101592.31;5076276;28;45358;-59
2022/06/10 11:28:44;;;;;;;;;1.40;1.20;;;;;24.53;43.73;101599.03;5071571;27;46246;-65
2022/06/10 11:31:44;;;;;;;;;3.40;2.00;;;;;24.43;43.54;101592.78;5076154;27;45343;-55
2022/06/10 11:34:34;;;;;;;;;2.00;2.00;;;;;24.48;44.32;101576.00;5075823;27;45415;-59
2022/06/10 11:37:00;;;;;;;;;2.25;2.25;;;;;24.53;43.60;101582.72;5074807;28;45801;-61
2022/06/10 11:39:35;;;;;;;;;2.00;2.00;;;;;24.71;43.72;101582.72;5076106;28;46481;-65
2022/06/10 11:42:14;;;;;;;;;3.00;2.00;;;;;24.60;43.51;101570.19;5075622;27;45402;-57
2022/06/10 11:45:06;;;;;;;;;2.00;2.00;;;;;24.71;43.64;101563.69;5076106;27;45447;-58
2022/06/10 11:47:41;;;;;;;;;2.00;2.00;;;;;24.94;43.48;101585.84;5076244;27;45428;-57
2022/06/10 11:50:26;;;;;;;;;5.25;1.00;;;;;25.01;42.74;101573.38;5075801;27;46098;-53
2022/06/10 11:53:02;;;;;;;;;2.00;2.00;;;;;25.02;42.54;101572.38;5074647;28;45503;-61
2022/06/10 11:55:35;;;;;;;;;1.00;1.00;;;;;24.91;43.06;101572.56;5074793;27;45403;-56
2022/06/10 12:01:00;;;;;;;;;2.00;2.00;;;;;25.20;43.10;101570.47;5075456;28;45311;-59